sensor_id;sensor_type;location;lat;lon;timestamp;P1;durP1;ratioP1;P2;durP2;ratioP2
17864;SDS011;9058;52.018;4.202;2023-12-29T00:02:05;12.73;;;5.90;;
17864;SDS011;9058;52.018;4.202;2023-12-29T00:04:32;11.50;;;5.32;;
17864;SDS011;9058;52.018;4.202;2023-12-29T00:07:01;17.60;;;6.25;;
17864;SDS011;9058;52.018;4.202;2023-12-29T00:09:28;15.10;;;6.05;;
17864;SDS011;9058;52.018;4.202;2023-12-29T00:11:55;24.45;;;6.60;;
17864;SDS011;9058;52.018;4.202;2023-12-29T00:14:21;17.98;;;6.45;;
17864;SDS011;9058;52.018;4.202;2023-12-29T00:16:47;16.10;;;5.45;;
17864;SDS011;9058;52.018;4.202;2023-12-29T00:19:14;17.73;;;5.75;;
17864;SDS011;9058;52.018;4.202;2023-12-29T00:21:40;16.70;;;5.80;;
17864;SDS011;9058;52.018;4.202;2023-12-29T00:24:08;13.77;;;5.95;;
17864;SDS011;9058;52.018;4.202;2023-12-29T00:26:35;10.35;;;5.95;;
17864;SDS011;9058;52.018;4.202;2023-12-29T00:29:02;17.13;;;5.93;;
17864;SDS011;9058;52.018;4.202;2023-12-29T00:31:31;11.25;;;5.60;;
17864;SDS011;9058;52.018;4.202;2023-12-29T00:33:58;13.82;;;5.53;;
17864;SDS011;9058;52.018;4.202;2023-12-29T00:36:25;17.65;;;6.63;;
17864;SDS011;9058;52.018;4.202;2023-12-29T00:38:51;17.73;;;5.72;;
17864;SDS011;9058;52.018;4.202;2023-12-29T00:41:21;12.77;;;5.78;;
17864;SDS011;9058;52.018;4.202;2023-12-29T00:43:47;13.38;;;5.03;;
17864;SDS011;9058;52.018;4.202;2023-12-29T00:46:15;11.52;;;5.45;;
17864;SDS011;9058;52.018;4.202;2023-12-29T00:48:41;8.98;;;5.50;;
17864;SDS011;9058;52.018;4.202;2023-12-29T00:51:08;13.38;;;5.25;;
17864;SDS011;9058;52.018;4.202;2023-12-29T00:53:34;11.70;;;5.10;;
17864;SDS011;9058;52.018;4.202;2023-12-29T00:56:01;13.07;;;5.13;;
17864;SDS011;9058;52.018;4.202;2023-12-29T00:58:29;15.73;;;5.63;;
17864;SDS011;9058;52.018;4.202;2023-12-29T01:00:56;25.58;;;6.03;;
17864;SDS011;9058;52.018;4.202;2023-12-29T01:03:23;13.65;;;6.85;;
17864;SDS011;9058;52.018;4.202;2023-12-29T01:05:49;18.35;;;5.75;;
17864;SDS011;9058;52.018;4.202;2023-12-29T01:08:16;13.02;;;6.20;;
17864;SDS011;9058;52.018;4.202;2023-12-29T01:10:46;13.65;;;5.90;;
17864;SDS011;9058;52.018;4.202;2023-12-29T01:13:15;13.82;;;6.03;;
17864;SDS011;9058;52.018;4.202;2023-12-29T01:15:42;10.48;;;5.70;;
17864;SDS011;9058;52.018;4.202;2023-12-29T01:18:10;15.40;;;6.20;;
17864;SDS011;9058;52.018;4.202;2023-12-29T01:20:37;10.43;;;5.75;;
17864;SDS011;9058;52.018;4.202;2023-12-29T01:23:04;19.60;;;5.68;;
17864;SDS011;9058;52.018;4.202;2023-12-29T01:25:31;12.30;;;5.45;;
17864;SDS011;9058;52.018;4.202;2023-12-29T01:27:57;11.50;;;6.60;;
17864;SDS011;9058;52.018;4.202;2023-12-29T01:30:24;10.88;;;6.57;;
17864;SDS011;9058;52.018;4.202;2023-12-29T01:32:51;13.23;;;6.55;;
17864;SDS011;9058;52.018;4.202;2023-12-29T01:35:18;12.43;;;6.28;;
17864;SDS011;9058;52.018;4.202;2023-12-29T01:37:44;12.90;;;6.15;;
17864;SDS011;9058;52.018;4.202;2023-12-29T01:40:11;15.27;;;7.00;;
17864;SDS011;9058;52.018;4.202;2023-12-29T01:42:37;8.52;;;5.30;;
17864;SDS011;9058;52.018;4.202;2023-12-29T01:45:04;13.68;;;6.32;;
17864;SDS011;9058;52.018;4.202;2023-12-29T01:47:31;14.88;;;6.05;;
17864;SDS011;9058;52.018;4.202;2023-12-29T01:50:01;17.45;;;6.30;;
17864;SDS011;9058;52.018;4.202;2023-12-29T01:52:27;18.23;;;6.55;;
17864;SDS011;9058;52.018;4.202;2023-12-29T01:54:54;15.38;;;6.50;;
17864;SDS011;9058;52.018;4.202;2023-12-29T01:57:20;16.92;;;7.22;;
17864;SDS011;9058;52.018;4.202;2023-12-29T01:59:47;16.02;;;6.45;;
17864;SDS011;9058;52.018;4.202;2023-12-29T02:02:14;19.77;;;7.03;;
17864;SDS011;9058;52.018;4.202;2023-12-29T02:04:40;17.05;;;6.75;;
17864;SDS011;9058;52.018;4.202;2023-12-29T02:07:08;19.98;;;6.55;;
17864;SDS011;9058;52.018;4.202;2023-12-29T02:09:35;16.20;;;6.18;;
17864;SDS011;9058;52.018;4.202;2023-12-29T02:12:02;19.45;;;7.78;;
17864;SDS011;9058;52.018;4.202;2023-12-29T02:14:29;22.25;;;7.43;;
17864;SDS011;9058;52.018;4.202;2023-12-29T02:16:58;21.33;;;6.82;;
17864;SDS011;9058;52.018;4.202;2023-12-29T02:19:34;23.83;;;7.70;;
17864;SDS011;9058;52.018;4.202;2023-12-29T02:22:02;26.08;;;7.47;;
17864;SDS011;9058;52.018;4.202;2023-12-29T02:24:33;29.75;;;9.30;;
17864;SDS011;9058;52.018;4.202;2023-12-29T02:27:03;26.90;;;7.97;;
17864;SDS011;9058;52.018;4.202;2023-12-29T02:29:33;26.35;;;7.72;;
17864;SDS011;9058;52.018;4.202;2023-12-29T02:32:01;25.23;;;7.85;;
17864;SDS011;9058;52.018;4.202;2023-12-29T02:34:30;24.95;;;8.32;;
17864;SDS011;9058;52.018;4.202;2023-12-29T02:36:58;32.90;;;9.18;;
17864;SDS011;9058;52.018;4.202;2023-12-29T02:39:25;31.17;;;8.43;;
17864;SDS011;9058;52.018;4.202;2023-12-29T02:41:51;30.02;;;8.82;;
17864;SDS011;9058;52.018;4.202;2023-12-29T02:44:19;28.65;;;8.55;;
17864;SDS011;9058;52.018;4.202;2023-12-29T02:46:45;26.63;;;8.70;;
17864;SDS011;9058;52.018;4.202;2023-12-29T02:49:11;27.85;;;9.30;;
17864;SDS011;9058;52.018;4.202;2023-12-29T02:51:38;22.75;;;8.75;;
17864;SDS011;9058;52.018;4.202;2023-12-29T02:54:04;28.73;;;8.90;;
17864;SDS011;9058;52.018;4.202;2023-12-29T02:56:32;29.17;;;8.55;;
17864;SDS011;9058;52.018;4.202;2023-12-29T02:59:00;19.85;;;7.05;;
17864;SDS011;9058;52.018;4.202;2023-12-29T03:01:27;28.65;;;7.95;;
17864;SDS011;9058;52.018;4.202;2023-12-29T03:03:54;18.73;;;5.47;;
17864;SDS011;9058;52.018;4.202;2023-12-29T03:06:21;15.10;;;5.85;;
17864;SDS011;9058;52.018;4.202;2023-12-29T03:08:48;35.67;;;8.15;;
17864;SDS011;9058;52.018;4.202;2023-12-29T03:11:15;23.55;;;7.25;;
17864;SDS011;9058;52.018;4.202;2023-12-29T03:13:42;22.40;;;6.60;;
17864;SDS011;9058;52.018;4.202;2023-12-29T03:16:08;21.88;;;6.63;;
17864;SDS011;9058;52.018;4.202;2023-12-29T03:18:36;22.52;;;6.85;;
17864;SDS011;9058;52.018;4.202;2023-12-29T03:21:05;21.00;;;7.47;;
17864;SDS011;9058;52.018;4.202;2023-12-29T03:23:32;29.33;;;8.18;;
17864;SDS011;9058;52.018;4.202;2023-12-29T03:25:58;18.90;;;7.65;;
17864;SDS011;9058;52.018;4.202;2023-12-29T03:28:25;24.42;;;8.48;;
17864;SDS011;9058;52.018;4.202;2023-12-29T03:30:51;27.83;;;8.38;;
17864;SDS011;9058;52.018;4.202;2023-12-29T03:33:19;26.05;;;7.85;;
17864;SDS011;9058;52.018;4.202;2023-12-29T03:35:46;28.52;;;9.32;;
17864;SDS011;9058;52.018;4.202;2023-12-29T03:38:13;33.83;;;9.40;;
17864;SDS011;9058;52.018;4.202;2023-12-29T03:40:41;31.90;;;9.07;;
17864;SDS011;9058;52.018;4.202;2023-12-29T03:43:07;30.50;;;9.00;;
17864;SDS011;9058;52.018;4.202;2023-12-29T03:45:34;29.60;;;9.52;;
17864;SDS011;9058;52.018;4.202;2023-12-29T03:48:00;27.70;;;9.35;;
17864;SDS011;9058;52.018;4.202;2023-12-29T03:50:27;30.98;;;7.97;;
17864;SDS011;9058;52.018;4.202;2023-12-29T03:52:56;38.08;;;9.32;;
17864;SDS011;9058;52.018;4.202;2023-12-29T03:55:22;26.40;;;7.95;;
17864;SDS011;9058;52.018;4.202;2023-12-29T03:57:49;29.67;;;8.55;;
17864;SDS011;9058;52.018;4.202;2023-12-29T04:00:15;37.00;;;9.15;;
17864;SDS011;9058;52.018;4.202;2023-12-29T04:02:42;23.50;;;7.47;;
17864;SDS011;9058;52.018;4.202;2023-12-29T04:05:08;27.00;;;8.00;;
17864;SDS011;9058;52.018;4.202;2023-12-29T04:07:35;26.88;;;7.18;;
17864;SDS011;9058;52.018;4.202;2023-12-29T04:10:04;25.67;;;8.38;;
17864;SDS011;9058;52.018;4.202;2023-12-29T04:12:31;26.67;;;7.53;;
17864;SDS011;9058;52.018;4.202;2023-12-29T04:14:57;35.33;;;8.80;;
17864;SDS011;9058;52.018;4.202;2023-12-29T04:17:23;31.17;;;7.60;;
17864;SDS011;9058;52.018;4.202;2023-12-29T04:19:50;32.22;;;8.63;;
17864;SDS011;9058;52.018;4.202;2023-12-29T04:22:16;26.98;;;8.30;;
17864;SDS011;9058;52.018;4.202;2023-12-29T04:24:43;28.20;;;6.53;;
17864;SDS011;9058;52.018;4.202;2023-12-29T04:27:11;24.85;;;6.72;;
17864;SDS011;9058;52.018;4.202;2023-12-29T04:29:37;25.80;;;7.95;;
17864;SDS011;9058;52.018;4.202;2023-12-29T04:32:04;25.13;;;7.30;;
17864;SDS011;9058;52.018;4.202;2023-12-29T04:34:30;21.85;;;8.70;;
17864;SDS011;9058;52.018;4.202;2023-12-29T04:36:58;28.15;;;7.65;;
17864;SDS011;9058;52.018;4.202;2023-12-29T04:39:24;31.13;;;8.35;;
17864;SDS011;9058;52.018;4.202;2023-12-29T04:41:51;30.88;;;8.60;;
17864;SDS011;9058;52.018;4.202;2023-12-29T04:44:19;29.27;;;9.32;;
17864;SDS011;9058;52.018;4.202;2023-12-29T04:46:45;31.80;;;9.68;;
17864;SDS011;9058;52.018;4.202;2023-12-29T04:49:11;26.65;;;8.63;;
17864;SDS011;9058;52.018;4.202;2023-12-29T04:51:38;29.83;;;8.77;;
17864;SDS011;9058;52.018;4.202;2023-12-29T04:54:04;30.20;;;7.82;;
17864;SDS011;9058;52.018;4.202;2023-12-29T04:56:31;31.30;;;8.95;;
17864;SDS011;9058;52.018;4.202;2023-12-29T04:58:57;29.30;;;7.78;;
17864;SDS011;9058;52.018;4.202;2023-12-29T05:01:26;28.70;;;8.45;;
17864;SDS011;9058;52.018;4.202;2023-12-29T05:03:54;30.67;;;8.85;;
17864;SDS011;9058;52.018;4.202;2023-12-29T05:06:20;35.85;;;9.85;;
17864;SDS011;9058;52.018;4.202;2023-12-29T05:08:46;26.10;;;9.05;;
17864;SDS011;9058;52.018;4.202;2023-12-29T05:11:13;26.17;;;9.15;;
17864;SDS011;9058;52.018;4.202;2023-12-29T05:13:39;22.77;;;8.55;;
17864;SDS011;9058;52.018;4.202;2023-12-29T05:16:07;32.17;;;8.45;;
17864;SDS011;9058;52.018;4.202;2023-12-29T05:18:34;30.15;;;8.32;;
17864;SDS011;9058;52.018;4.202;2023-12-29T05:21:02;36.50;;;8.77;;
17864;SDS011;9058;52.018;4.202;2023-12-29T05:23:28;34.92;;;9.32;;
17864;SDS011;9058;52.018;4.202;2023-12-29T05:25:55;38.45;;;8.77;;
17864;SDS011;9058;52.018;4.202;2023-12-29T05:28:21;37.22;;;9.05;;
17864;SDS011;9058;52.018;4.202;2023-12-29T05:30:48;34.30;;;9.02;;
17864;SDS011;9058;52.018;4.202;2023-12-29T05:33:14;31.30;;;8.80;;
17864;SDS011;9058;52.018;4.202;2023-12-29T05:35:43;31.15;;;8.38;;
17864;SDS011;9058;52.018;4.202;2023-12-29T05:38:10;31.40;;;8.93;;
17864;SDS011;9058;52.018;4.202;2023-12-29T05:40:36;30.48;;;9.88;;
17864;SDS011;9058;52.018;4.202;2023-12-29T05:43:04;33.00;;;9.13;;
17864;SDS011;9058;52.018;4.202;2023-12-29T05:45:30;31.05;;;8.57;;
17864;SDS011;9058;52.018;4.202;2023-12-29T05:47:57;26.63;;;8.55;;
17864;SDS011;9058;52.018;4.202;2023-12-29T05:50:24;23.67;;;7.35;;
17864;SDS011;9058;52.018;4.202;2023-12-29T05:52:52;26.75;;;7.78;;
17864;SDS011;9058;52.018;4.202;2023-12-29T05:55:18;24.17;;;8.70;;
17864;SDS011;9058;52.018;4.202;2023-12-29T05:57:45;20.17;;;8.40;;
17864;SDS011;9058;52.018;4.202;2023-12-29T06:00:12;23.65;;;7.68;;
17864;SDS011;9058;52.018;4.202;2023-12-29T06:02:39;21.17;;;8.32;;
17864;SDS011;9058;52.018;4.202;2023-12-29T06:05:07;23.63;;;7.13;;
17864;SDS011;9058;52.018;4.202;2023-12-29T06:07:35;22.08;;;6.78;;
17864;SDS011;9058;52.018;4.202;2023-12-29T06:10:03;23.45;;;7.70;;
17864;SDS011;9058;52.018;4.202;2023-12-29T06:12:29;25.70;;;7.50;;
17864;SDS011;9058;52.018;4.202;2023-12-29T06:14:58;21.98;;;7.65;;
17864;SDS011;9058;52.018;4.202;2023-12-29T06:17:24;27.02;;;7.68;;
17864;SDS011;9058;52.018;4.202;2023-12-29T06:19:51;22.60;;;7.22;;
17864;SDS011;9058;52.018;4.202;2023-12-29T06:22:17;17.95;;;6.25;;
17864;SDS011;9058;52.018;4.202;2023-12-29T06:24:45;18.85;;;7.22;;
17864;SDS011;9058;52.018;4.202;2023-12-29T06:27:13;21.85;;;7.03;;
17864;SDS011;9058;52.018;4.202;2023-12-29T06:29:40;14.40;;;6.88;;
17864;SDS011;9058;52.018;4.202;2023-12-29T06:32:07;24.23;;;6.90;;
17864;SDS011;9058;52.018;4.202;2023-12-29T06:34:33;20.90;;;7.53;;
17864;SDS011;9058;52.018;4.202;2023-12-29T06:37:00;21.92;;;6.88;;
17864;SDS011;9058;52.018;4.202;2023-12-29T06:39:27;18.95;;;7.75;;
17864;SDS011;9058;52.018;4.202;2023-12-29T06:41:53;18.90;;;6.22;;
17864;SDS011;9058;52.018;4.202;2023-12-29T06:44:22;21.35;;;6.53;;
17864;SDS011;9058;52.018;4.202;2023-12-29T06:46:49;20.77;;;6.85;;
17864;SDS011;9058;52.018;4.202;2023-12-29T06:49:15;22.98;;;7.03;;
17864;SDS011;9058;52.018;4.202;2023-12-29T06:51:42;13.60;;;5.32;;
17864;SDS011;9058;52.018;4.202;2023-12-29T06:54:08;15.90;;;5.70;;
17864;SDS011;9058;52.018;4.202;2023-12-29T06:56:35;15.52;;;6.35;;
17864;SDS011;9058;52.018;4.202;2023-12-29T06:59:02;22.95;;;6.47;;
17864;SDS011;9058;52.018;4.202;2023-12-29T07:01:30;25.83;;;7.43;;
17864;SDS011;9058;52.018;4.202;2023-12-29T07:03:56;22.92;;;7.38;;
17864;SDS011;9058;52.018;4.202;2023-12-29T07:06:23;23.30;;;7.72;;
17864;SDS011;9058;52.018;4.202;2023-12-29T07:08:49;24.15;;;7.72;;
17864;SDS011;9058;52.018;4.202;2023-12-29T07:11:17;21.92;;;7.35;;
17864;SDS011;9058;52.018;4.202;2023-12-29T07:13:43;22.02;;;6.18;;
17864;SDS011;9058;52.018;4.202;2023-12-29T07:16:10;20.35;;;7.68;;
17864;SDS011;9058;52.018;4.202;2023-12-29T07:18:38;25.45;;;6.90;;
17864;SDS011;9058;52.018;4.202;2023-12-29T07:21:06;11.90;;;5.30;;
17864;SDS011;9058;52.018;4.202;2023-12-29T07:23:32;18.40;;;6.28;;
17864;SDS011;9058;52.018;4.202;2023-12-29T07:25:59;22.38;;;6.47;;
17864;SDS011;9058;52.018;4.202;2023-12-29T07:28:25;11.60;;;6.10;;
17864;SDS011;9058;52.018;4.202;2023-12-29T07:30:52;16.02;;;6.07;;
17864;SDS011;9058;52.018;4.202;2023-12-29T07:33:19;17.45;;;5.93;;
17864;SDS011;9058;52.018;4.202;2023-12-29T07:35:47;17.70;;;5.65;;
17864;SDS011;9058;52.018;4.202;2023-12-29T07:38:14;10.02;;;5.22;;
17864;SDS011;9058;52.018;4.202;2023-12-29T07:40:40;16.33;;;6.03;;
17864;SDS011;9058;52.018;4.202;2023-12-29T07:43:07;9.15;;;5.75;;
17864;SDS011;9058;52.018;4.202;2023-12-29T07:45:34;10.18;;;5.25;;
17864;SDS011;9058;52.018;4.202;2023-12-29T07:48:02;10.32;;;5.00;;
17864;SDS011;9058;52.018;4.202;2023-12-29T07:50:29;11.18;;;5.03;;
17864;SDS011;9058;52.018;4.202;2023-12-29T07:52:57;13.88;;;5.20;;
17864;SDS011;9058;52.018;4.202;2023-12-29T07:55:25;13.23;;;6.22;;
17864;SDS011;9058;52.018;4.202;2023-12-29T07:57:52;12.52;;;5.43;;
17864;SDS011;9058;52.018;4.202;2023-12-29T08:00:18;11.40;;;4.68;;
17864;SDS011;9058;52.018;4.202;2023-12-29T08:02:44;10.25;;;5.60;;
17864;SDS011;9058;52.018;4.202;2023-12-29T08:05:10;10.63;;;5.03;;
17864;SDS011;9058;52.018;4.202;2023-12-29T08:07:37;9.70;;;4.53;;
17864;SDS011;9058;52.018;4.202;2023-12-29T08:10:06;6.43;;;4.78;;
17864;SDS011;9058;52.018;4.202;2023-12-29T08:12:32;12.38;;;4.93;;
17864;SDS011;9058;52.018;4.202;2023-12-29T08:15:01;13.35;;;5.07;;
17864;SDS011;9058;52.018;4.202;2023-12-29T08:17:27;9.15;;;4.53;;
17864;SDS011;9058;52.018;4.202;2023-12-29T08:19:58;7.20;;;4.47;;
17864;SDS011;9058;52.018;4.202;2023-12-29T08:22:24;6.72;;;4.00;;
17864;SDS011;9058;52.018;4.202;2023-12-29T08:24:51;6.70;;;4.40;;
17864;SDS011;9058;52.018;4.202;2023-12-29T08:27:24;7.93;;;4.25;;
17864;SDS011;9058;52.018;4.202;2023-12-29T08:29:51;10.90;;;4.50;;
17864;SDS011;9058;52.018;4.202;2023-12-29T08:32:19;7.68;;;4.53;;
17864;SDS011;9058;52.018;4.202;2023-12-29T08:34:45;10.52;;;4.95;;
17864;SDS011;9058;52.018;4.202;2023-12-29T08:37:12;10.98;;;4.55;;
17864;SDS011;9058;52.018;4.202;2023-12-29T08:39:40;13.88;;;4.28;;
17864;SDS011;9058;52.018;4.202;2023-12-29T08:42:08;8.77;;;3.97;;
17864;SDS011;9058;52.018;4.202;2023-12-29T08:44:36;11.57;;;4.30;;
17864;SDS011;9058;52.018;4.202;2023-12-29T08:47:03;8.63;;;4.50;;
17864;SDS011;9058;52.018;4.202;2023-12-29T08:49:33;13.60;;;4.90;;
17864;SDS011;9058;52.018;4.202;2023-12-29T08:51:59;13.85;;;4.53;;
17864;SDS011;9058;52.018;4.202;2023-12-29T08:54:26;11.05;;;4.22;;
17864;SDS011;9058;52.018;4.202;2023-12-29T08:56:52;14.68;;;5.05;;
17864;SDS011;9058;52.018;4.202;2023-12-29T08:59:19;16.42;;;5.30;;
17864;SDS011;9058;52.018;4.202;2023-12-29T09:01:47;10.98;;;4.38;;
17864;SDS011;9058;52.018;4.202;2023-12-29T09:04:14;15.50;;;5.68;;
17864;SDS011;9058;52.018;4.202;2023-12-29T09:06:40;12.50;;;5.20;;
17864;SDS011;9058;52.018;4.202;2023-12-29T09:09:07;11.30;;;5.32;;
17864;SDS011;9058;52.018;4.202;2023-12-29T09:11:37;13.88;;;4.47;;
17864;SDS011;9058;52.018;4.202;2023-12-29T09:14:04;12.70;;;4.65;;
17864;SDS011;9058;52.018;4.202;2023-12-29T09:16:30;15.35;;;5.20;;
17864;SDS011;9058;52.018;4.202;2023-12-29T09:18:59;18.38;;;6.65;;
17864;SDS011;9058;52.018;4.202;2023-12-29T09:21:26;13.38;;;5.13;;
17864;SDS011;9058;52.018;4.202;2023-12-29T09:23:52;12.00;;;5.38;;
17864;SDS011;9058;52.018;4.202;2023-12-29T09:26:19;15.65;;;6.20;;
17864;SDS011;9058;52.018;4.202;2023-12-29T09:28:45;15.02;;;5.50;;
17864;SDS011;9058;52.018;4.202;2023-12-29T09:31:12;18.55;;;6.47;;
17864;SDS011;9058;52.018;4.202;2023-12-29T09:33:38;13.32;;;5.07;;
17864;SDS011;9058;52.018;4.202;2023-12-29T09:36:06;25.33;;;6.72;;
17864;SDS011;9058;52.018;4.202;2023-12-29T09:38:34;22.30;;;7.15;;
17864;SDS011;9058;52.018;4.202;2023-12-29T09:41:04;21.02;;;5.72;;
17864;SDS011;9058;52.018;4.202;2023-12-29T09:43:31;24.25;;;7.05;;
17864;SDS011;9058;52.018;4.202;2023-12-29T09:45:58;27.05;;;7.07;;
17864;SDS011;9058;52.018;4.202;2023-12-29T09:48:25;21.92;;;6.07;;
17864;SDS011;9058;52.018;4.202;2023-12-29T09:50:53;22.17;;;6.03;;
17864;SDS011;9058;52.018;4.202;2023-12-29T09:53:21;17.40;;;5.22;;
17864;SDS011;9058;52.018;4.202;2023-12-29T09:55:48;22.63;;;6.88;;
17864;SDS011;9058;52.018;4.202;2023-12-29T09:58:15;19.75;;;6.22;;
17864;SDS011;9058;52.018;4.202;2023-12-29T10:00:41;27.70;;;7.03;;
17864;SDS011;9058;52.018;4.202;2023-12-29T10:03:08;20.52;;;5.93;;
17864;SDS011;9058;52.018;4.202;2023-12-29T10:05:35;18.77;;;6.68;;
17864;SDS011;9058;52.018;4.202;2023-12-29T10:08:02;29.27;;;9.10;;
17864;SDS011;9058;52.018;4.202;2023-12-29T10:10:30;17.80;;;7.03;;
17864;SDS011;9058;52.018;4.202;2023-12-29T10:12:58;18.83;;;6.28;;
17864;SDS011;9058;52.018;4.202;2023-12-29T10:15:28;24.83;;;6.70;;
17864;SDS011;9058;52.018;4.202;2023-12-29T10:18:00;19.33;;;6.32;;
17864;SDS011;9058;52.018;4.202;2023-12-29T10:20:37;19.25;;;6.60;;
17864;SDS011;9058;52.018;4.202;2023-12-29T10:23:06;19.33;;;5.60;;
17864;SDS011;9058;52.018;4.202;2023-12-29T10:25:35;20.63;;;6.18;;
17864;SDS011;9058;52.018;4.202;2023-12-29T10:28:02;17.23;;;6.32;;
17864;SDS011;9058;52.018;4.202;2023-12-29T10:30:30;18.63;;;7.28;;
17864;SDS011;9058;52.018;4.202;2023-12-29T10:32:57;21.42;;;6.13;;
17864;SDS011;9058;52.018;4.202;2023-12-29T10:35:25;21.60;;;5.47;;
17864;SDS011;9058;52.018;4.202;2023-12-29T10:37:52;24.02;;;6.47;;
17864;SDS011;9058;52.018;4.202;2023-12-29T10:40:19;18.98;;;7.00;;
17864;SDS011;9058;52.018;4.202;2023-12-29T10:42:52;23.05;;;6.25;;
17864;SDS011;9058;52.018;4.202;2023-12-29T10:45:19;20.50;;;6.22;;
17864;SDS011;9058;52.018;4.202;2023-12-29T10:47:46;20.02;;;5.88;;
17864;SDS011;9058;52.018;4.202;2023-12-29T10:50:12;17.95;;;6.35;;
17864;SDS011;9058;52.018;4.202;2023-12-29T10:52:39;22.27;;;6.05;;
17864;SDS011;9058;52.018;4.202;2023-12-29T10:55:07;17.17;;;6.15;;
17864;SDS011;9058;52.018;4.202;2023-12-29T10:57:35;16.13;;;5.70;;
17864;SDS011;9058;52.018;4.202;2023-12-29T11:00:03;15.10;;;5.68;;
17864;SDS011;9058;52.018;4.202;2023-12-29T11:02:31;21.33;;;6.18;;
17864;SDS011;9058;52.018;4.202;2023-12-29T11:05:02;19.88;;;6.40;;
17864;SDS011;9058;52.018;4.202;2023-12-29T11:07:35;18.13;;;6.30;;
17864;SDS011;9058;52.018;4.202;2023-12-29T11:10:04;17.98;;;6.18;;
17864;SDS011;9058;52.018;4.202;2023-12-29T11:12:32;13.07;;;6.13;;
17864;SDS011;9058;52.018;4.202;2023-12-29T11:14:59;19.92;;;5.70;;
17864;SDS011;9058;52.018;4.202;2023-12-29T11:17:27;20.67;;;6.50;;
17864;SDS011;9058;52.018;4.202;2023-12-29T11:19:55;19.38;;;5.78;;
17864;SDS011;9058;52.018;4.202;2023-12-29T11:22:21;20.58;;;6.22;;
17864;SDS011;9058;52.018;4.202;2023-12-29T11:24:48;20.10;;;5.57;;
17864;SDS011;9058;52.018;4.202;2023-12-29T11:27:15;18.45;;;5.72;;
17864;SDS011;9058;52.018;4.202;2023-12-29T11:29:42;22.40;;;5.90;;
17864;SDS011;9058;52.018;4.202;2023-12-29T11:32:11;16.15;;;6.00;;
17864;SDS011;9058;52.018;4.202;2023-12-29T11:34:40;18.33;;;5.85;;
17864;SDS011;9058;52.018;4.202;2023-12-29T11:37:11;20.65;;;6.50;;
17864;SDS011;9058;52.018;4.202;2023-12-29T11:39:45;16.05;;;5.78;;
17864;SDS011;9058;52.018;4.202;2023-12-29T11:42:17;14.50;;;5.60;;
17864;SDS011;9058;52.018;4.202;2023-12-29T11:44:47;19.08;;;6.63;;
17864;SDS011;9058;52.018;4.202;2023-12-29T11:47:34;13.10;;;7.38;;
17864;SDS011;9058;52.018;4.202;2023-12-29T11:50:03;15.98;;;5.43;;
17864;SDS011;9058;52.018;4.202;2023-12-29T11:52:32;12.38;;;4.53;;
17864;SDS011;9058;52.018;4.202;2023-12-29T11:55:07;17.42;;;6.18;;
17864;SDS011;9058;52.018;4.202;2023-12-29T11:57:34;23.10;;;6.30;;
17864;SDS011;9058;52.018;4.202;2023-12-29T12:00:03;16.15;;;5.88;;
17864;SDS011;9058;52.018;4.202;2023-12-29T12:02:31;19.50;;;6.32;;
17864;SDS011;9058;52.018;4.202;2023-12-29T12:04:58;18.25;;;5.68;;
17864;SDS011;9058;52.018;4.202;2023-12-29T12:10:29;21.13;;;5.82;;
17864;SDS011;9058;52.018;4.202;2023-12-29T12:12:56;31.63;;;6.82;;
17864;SDS011;9058;52.018;4.202;2023-12-29T12:15:31;18.58;;;5.97;;
17864;SDS011;9058;52.018;4.202;2023-12-29T12:17:58;14.20;;;5.82;;
17864;SDS011;9058;52.018;4.202;2023-12-29T12:20:25;17.98;;;6.75;;
17864;SDS011;9058;52.018;4.202;2023-12-29T12:22:55;14.13;;;5.18;;
17864;SDS011;9058;52.018;4.202;2023-12-29T12:25:23;15.80;;;5.85;;
17864;SDS011;9058;52.018;4.202;2023-12-29T12:27:52;17.13;;;5.78;;
17864;SDS011;9058;52.018;4.202;2023-12-29T12:30:19;14.35;;;5.15;;
17864;SDS011;9058;52.018;4.202;2023-12-29T12:32:46;11.60;;;6.97;;
17864;SDS011;9058;52.018;4.202;2023-12-29T12:35:13;19.38;;;6.85;;
17864;SDS011;9058;52.018;4.202;2023-12-29T12:37:41;11.27;;;5.57;;
17864;SDS011;9058;52.018;4.202;2023-12-29T12:40:08;13.48;;;4.68;;
17864;SDS011;9058;52.018;4.202;2023-12-29T12:42:38;15.18;;;5.45;;
17864;SDS011;9058;52.018;4.202;2023-12-29T12:45:12;15.57;;;4.80;;
17864;SDS011;9058;52.018;4.202;2023-12-29T12:47:41;11.18;;;4.57;;
17864;SDS011;9058;52.018;4.202;2023-12-29T12:50:10;14.25;;;5.07;;
17864;SDS011;9058;52.018;4.202;2023-12-29T12:52:37;14.18;;;5.63;;
17864;SDS011;9058;52.018;4.202;2023-12-29T12:55:04;11.85;;;4.88;;
17864;SDS011;9058;52.018;4.202;2023-12-29T12:57:31;11.40;;;4.93;;
17864;SDS011;9058;52.018;4.202;2023-12-29T12:59:59;14.32;;;4.97;;
17864;SDS011;9058;52.018;4.202;2023-12-29T13:02:27;15.60;;;4.93;;
17864;SDS011;9058;52.018;4.202;2023-12-29T13:04:54;14.20;;;5.05;;
17864;SDS011;9058;52.018;4.202;2023-12-29T13:07:21;9.20;;;4.70;;
17864;SDS011;9058;52.018;4.202;2023-12-29T13:09:48;11.00;;;5.53;;
17864;SDS011;9058;52.018;4.202;2023-12-29T13:12:17;14.38;;;5.60;;
17864;SDS011;9058;52.018;4.202;2023-12-29T13:14:44;20.00;;;4.85;;
17864;SDS011;9058;52.018;4.202;2023-12-29T13:17:13;12.20;;;5.13;;
17864;SDS011;9058;52.018;4.202;2023-12-29T13:19:43;14.63;;;5.25;;
17864;SDS011;9058;52.018;4.202;2023-12-29T13:22:12;14.48;;;5.03;;
17864;SDS011;9058;52.018;4.202;2023-12-29T13:24:43;15.27;;;5.45;;
17864;SDS011;9058;52.018;4.202;2023-12-29T13:27:09;12.93;;;5.80;;
17864;SDS011;9058;52.018;4.202;2023-12-29T13:29:37;11.43;;;5.35;;
17864;SDS011;9058;52.018;4.202;2023-12-29T13:32:05;15.20;;;8.05;;
17864;SDS011;9058;52.018;4.202;2023-12-29T13:34:36;12.75;;;5.88;;
17864;SDS011;9058;52.018;4.202;2023-12-29T13:37:06;16.92;;;6.75;;
17864;SDS011;9058;52.018;4.202;2023-12-29T13:39:35;15.07;;;5.07;;
17864;SDS011;9058;52.018;4.202;2023-12-29T13:42:03;13.23;;;5.25;;
17864;SDS011;9058;52.018;4.202;2023-12-29T13:44:31;10.82;;;5.03;;
17864;SDS011;9058;52.018;4.202;2023-12-29T13:46:59;15.07;;;5.05;;
17864;SDS011;9058;52.018;4.202;2023-12-29T13:49:25;19.25;;;5.95;;
17864;SDS011;9058;52.018;4.202;2023-12-29T13:51:52;23.95;;;6.60;;
17864;SDS011;9058;52.018;4.202;2023-12-29T13:54:20;11.25;;;5.70;;
17864;SDS011;9058;52.018;4.202;2023-12-29T13:56:51;17.27;;;5.65;;
17864;SDS011;9058;52.018;4.202;2023-12-29T13:59:18;17.98;;;6.55;;
17864;SDS011;9058;52.018;4.202;2023-12-29T14:01:44;18.63;;;5.55;;
17864;SDS011;9058;52.018;4.202;2023-12-29T14:04:11;14.75;;;5.88;;
17864;SDS011;9058;52.018;4.202;2023-12-29T14:06:39;18.15;;;6.68;;
17864;SDS011;9058;52.018;4.202;2023-12-29T14:09:09;15.43;;;5.50;;
17864;SDS011;9058;52.018;4.202;2023-12-29T14:11:44;24.00;;;6.50;;
17864;SDS011;9058;52.018;4.202;2023-12-29T14:14:11;15.13;;;5.47;;
17864;SDS011;9058;52.018;4.202;2023-12-29T14:16:39;16.65;;;6.28;;
17864;SDS011;9058;52.018;4.202;2023-12-29T14:19:05;13.48;;;5.90;;
17864;SDS011;9058;52.018;4.202;2023-12-29T14:21:33;21.25;;;6.70;;
17864;SDS011;9058;52.018;4.202;2023-12-29T14:24:01;18.23;;;6.32;;
17864;SDS011;9058;52.018;4.202;2023-12-29T14:26:29;21.70;;;6.07;;
17864;SDS011;9058;52.018;4.202;2023-12-29T14:29:02;23.40;;;7.45;;
17864;SDS011;9058;52.018;4.202;2023-12-29T14:31:28;20.35;;;5.93;;
17864;SDS011;9058;52.018;4.202;2023-12-29T14:33:55;19.38;;;6.30;;
17864;SDS011;9058;52.018;4.202;2023-12-29T14:36:21;16.42;;;5.53;;
17864;SDS011;9058;52.018;4.202;2023-12-29T14:38:48;17.20;;;5.72;;
17864;SDS011;9058;52.018;4.202;2023-12-29T14:41:15;18.05;;;7.03;;
17864;SDS011;9058;52.018;4.202;2023-12-29T14:43:42;19.75;;;5.47;;
17864;SDS011;9058;52.018;4.202;2023-12-29T14:46:10;20.63;;;5.68;;
17864;SDS011;9058;52.018;4.202;2023-12-29T14:48:36;21.55;;;6.38;;
17864;SDS011;9058;52.018;4.202;2023-12-29T14:51:04;18.70;;;6.35;;
17864;SDS011;9058;52.018;4.202;2023-12-29T14:53:30;19.35;;;4.88;;